Time;durP1;ratioP1;P1;durP2;ratioP2;P2;SDS_P1;SDS_P2;PMS_P1;PMS_P2;Temp;Humidity;BMP_temperature;BMP_pressure;BME280_temperature;BME280_humidity;BME280_pressure;Samples;Min_cycle;Max_cycle;Signal;HPM_P1;HPM_P2
2023/06/07 00:02:17;;;;;;;5.13;2.72;;;18.60;61.20;;;;;;4989062;28;20486;-65
2023/06/07 00:04:48;;;;;;;5.35;2.67;;;18.60;61.20;;;;;;4992626;28;20081;-64
2023/06/07 00:07:15;;;;;;;6.25;3.13;;;18.60;61.50;;;;;;4995704;28;20057;-62
2023/06/07 00:09:42;;;;;;;4.70;2.20;;;18.60;61.40;;;;;;4992698;28;20045;-61
2023/06/07 00:12:10;;;;;;;5.65;2.60;;;18.60;61.40;;;;;;4994586;28;20141;-62
2023/06/07 00:14:38;;;;;;;4.38;2.40;;;18.60;61.40;;;;;;4995038;28;20395;-60
2023/06/07 00:17:05;;;;;;;4.68;2.72;;;18.50;61.60;;;;;;4992183;28;20038;-66
2023/06/07 00:19:32;;;;;;;6.68;2.95;;;18.50;61.40;;;;;;4996600;28;20054;-66
2023/06/07 00:22:01;;;;;;;6.00;2.92;;;18.50;61.40;;;;;;4995239;28;20524;-68
2023/06/07 00:24:28;;;;;;;4.80;2.65;;;18.50;61.80;;;;;;4994883;28;20043;-68
2023/06/07 00:26:55;;;;;;;4.63;2.70;;;18.50;61.50;;;;;;4996357;28;20486;-66
2023/06/07 00:29:22;;;;;;;5.35;2.90;;;18.50;61.50;;;;;;4992821;28;20706;-65
2023/06/07 00:31:50;;;;;;;6.05;2.90;;;18.50;61.60;;;;;;4993414;28;20046;-66
2023/06/07 00:34:17;;;;;;;5.30;2.92;;;18.40;61.70;;;;;;4992194;28;20072;-66
2023/06/07 00:36:44;;;;;;;5.88;3.10;;;18.50;61.70;;;;;;4987396;28;20046;-73
2023/06/07 00:39:11;;;;;;;4.47;2.35;;;18.40;61.70;;;;;;4971921;28;20050;-72
2023/06/07 00:41:38;;;;;;;5.00;2.67;;;18.40;61.70;;;;;;4969860;28;20064;-67
2023/06/07 00:44:05;;;;;;;4.38;2.60;;;18.40;61.80;;;;;;4965521;28;20065;-66
2023/06/07 00:46:33;;;;;;;4.75;2.70;;;18.40;62.10;;;;;;4976020;28;20057;-69
2023/06/07 00:49:01;;;;;;;4.25;2.50;;;18.40;62.20;;;;;;4973487;28;20077;-70
2023/06/07 00:51:30;;;;;;;4.70;2.70;;;18.40;62.30;;;;;;4990469;28;20414;-65
2023/06/07 00:54:00;;;;;;;5.25;2.95;;;18.40;62.60;;;;;;4991531;28;20291;-65
2023/06/07 00:56:28;;;;;;;5.47;2.70;;;18.40;62.80;;;;;;4992068;28;20046;-76
2023/06/07 00:58:55;;;;;;;4.20;2.35;;;18.40;62.90;;;;;;4993224;28;20050;-78
2023/06/07 01:01:22;;;;;;;4.68;2.75;;;18.40;63.00;;;;;;4995980;28;20062;-71
2023/06/07 01:03:49;;;;;;;4.32;2.80;;;18.30;63.00;;;;;;4989232;28;20062;-72
2023/06/07 01:06:18;;;;;;;4.57;2.70;;;18.30;63.00;;;;;;4994953;28;20046;-61
2023/06/07 01:08:47;;;;;;;4.90;2.58;;;18.30;62.90;;;;;;4986446;28;20904;-62
2023/06/07 01:11:16;;;;;;;3.95;2.40;;;18.20;62.90;;;;;;4976520;28;20436;-70
2023/06/07 01:13:43;;;;;;;5.65;2.40;;;18.30;63.00;;;;;;4993861;28;20091;-70
2023/06/07 01:16:11;;;;;;;4.35;2.55;;;18.30;63.10;;;;;;4991912;28;20049;-66
2023/06/07 01:18:38;;;;;;;5.05;2.80;;;18.30;63.40;;;;;;4976426;28;20043;-65
2023/06/07 01:21:07;;;;;;;5.22;2.60;;;18.30;63.30;;;;;;4995187;28;20116;-71
2023/06/07 01:23:36;;;;;;;3.35;2.38;;;18.30;63.40;;;;;;4993722;28;20422;-72
2023/06/07 01:26:04;;;;;;;5.93;2.70;;;18.30;63.50;;;;;;4979355;28;20049;-70
2023/06/07 01:28:34;;;;;;;6.43;2.72;;;18.30;63.70;;;;;;4995907;28;20042;-70
2023/06/07 01:31:02;;;;;;;;;;;18.30;63.80;;;;;;4995374;28;20125;-69
2023/06/07 01:33:29;;;;;;;4.82;2.40;;;18.30;63.70;;;;;;4990896;28;19937;-69
2023/06/07 01:35:57;;;;;;;6.60;2.80;;;18.20;63.80;;;;;;4976164;28;20124;-69
2023/06/07 01:38:27;;;;;;;4.32;2.80;;;18.20;63.90;;;;;;4993738;28;20050;-70
2023/06/07 01:40:56;;;;;;;6.27;2.70;;;18.20;64.10;;;;;;4993778;28;20054;-71
2023/06/07 01:43:24;;;;;;;5.90;2.95;;;18.20;64.00;;;;;;4994955;28;20557;-70
2023/06/07 01:45:54;;;;;;;4.53;2.70;;;18.20;63.80;;;;;;4994150;28;20136;-70
2023/06/07 01:48:21;;;;;;;7.00;3.15;;;18.20;63.60;;;;;;4992461;28;20046;-70
2023/06/07 01:50:48;;;;;;;5.85;2.85;;;18.20;63.50;;;;;;4989691;28;20046;-70
2023/06/07 01:53:15;;;;;;;6.43;3.45;;;18.10;63.50;;;;;;4983949;28;20050;-68
2023/06/07 01:55:43;;;;;;;6.18;3.13;;;18.10;63.70;;;;;;4990829;28;20133;-70
2023/06/07 01:58:24;;;;;;;6.17;2.97;;;18.10;63.80;;;;;;4987259;28;20065;-69
2023/06/07 02:00:59;;;;;;;6.05;3.22;;;18.00;63.70;;;;;;4975829;28;20053;-70
2023/06/07 02:03:30;;;;;;;5.68;3.00;;;17.90;63.90;;;;;;4991967;28;20042;-71
2023/06/07 02:06:04;;;;;;;5.57;3.30;;;17.90;64.00;;;;;;4985440;28;20062;-71
2023/06/07 02:08:35;;;;;;;5.70;3.35;;;17.90;64.00;;;;;;4990465;28;20047;-70
2023/06/07 02:11:03;;;;;;;5.53;3.13;;;18.00;64.20;;;;;;4987193;28;20128;-66
2023/06/07 02:13:36;;;;;;;4.95;3.13;;;17.90;64.30;;;;;;4966896;28;20076;-66
2023/06/07 02:16:04;;;;;;;6.25;3.20;;;17.90;64.30;;;;;;4989420;28;20050;-82
2023/06/07 02:18:33;;;;;;;5.60;3.10;;;17.90;64.40;;;;;;4972039;28;20133;-81
2023/06/07 02:20:59;;;;;;;5.60;3.30;;;17.90;64.70;;;;;;4988270;28;20050;-82
2023/06/07 02:23:26;;;;;;;5.38;3.17;;;17.90;65.00;;;;;;4988978;28;20054;-83
2023/06/07 02:25:53;;;;;;;5.57;2.45;;;17.90;65.30;;;;;;4995140;28;20054;-68
2023/06/07 02:28:20;;;;;;;6.05;3.17;;;17.90;65.50;;;;;;4991445;28;20053;-68
2023/06/07 02:30:50;;;;;;;5.07;2.92;;;17.90;65.60;;;;;;4995200;28;20058;-71
2023/06/07 02:33:21;;;;;;;4.72;2.85;;;17.90;65.90;;;;;;4994652;28;20046;-70
2023/06/07 02:35:49;;;;;;;4.90;2.83;;;17.90;66.10;;;;;;4991104;28;20054;-70
2023/06/07 02:38:17;;;;;;;5.30;2.67;;;17.90;66.20;;;;;;4993538;28;20056;-70
2023/06/07 02:40:46;;;;;;;4.88;2.47;;;17.90;66.50;;;;;;4989041;28;20425;-70
2023/06/07 02:43:14;;;;;;;4.68;2.63;;;17.90;66.70;;;;;;4976527;28;21109;-70
2023/06/07 02:45:40;;;;;;;5.45;2.90;;;17.80;66.90;;;;;;4975566;28;20050;-73
2023/06/07 02:48:09;;;;;;;4.65;2.92;;;17.80;67.10;;;;;;4994906;28;20042;-72
2023/06/07 02:50:37;;;;;;;4.30;2.50;;;17.90;67.20;;;;;;4993869;28;20051;-68
2023/06/07 02:53:07;;;;;;;4.43;2.70;;;17.80;67.50;;;;;;4969386;28;20058;-68
2023/06/07 02:55:34;;;;;;;4.75;2.63;;;17.80;67.50;;;;;;4975187;28;20601;-70
2023/06/07 02:58:01;;;;;;;4.63;2.90;;;17.80;67.60;;;;;;4987806;28;20061;-70
2023/06/07 03:00:32;;;;;;;5.47;2.75;;;17.70;67.40;;;;;;4989794;28;20078;-67
2023/06/07 03:03:06;;;;;;;4.75;2.92;;;17.70;67.40;;;;;;4963867;28;20057;-67
2023/06/07 03:05:36;;;;;;;4.75;2.65;;;17.80;67.60;;;;;;4988473;28;20061;-67
2023/06/07 03:08:10;;;;;;;4.85;2.75;;;17.80;67.70;;;;;;4987265;28;20050;-67
2023/06/07 03:10:38;;;;;;;;;;;17.70;67.90;;;;;;4964546;28;20058;-72
2023/06/07 03:13:07;;;;;;;4.63;2.67;;;17.80;67.90;;;;;;4975554;28;19961;-72
2023/06/07 03:15:37;;;;;;;5.15;2.65;;;17.70;67.90;;;;;;4970861;28;20057;-84
2023/06/07 03:18:04;;;;;;;3.78;2.30;;;17.80;68.00;;;;;;4976896;28;20101;-84
2023/06/07 03:20:34;;;;;;;4.40;2.90;;;17.80;68.00;;;;;;4978980;28;20161;-66
2023/06/07 03:23:06;;;;;;;4.32;2.83;;;17.70;67.90;;;;;;4979774;28;20054;-66
2023/06/07 03:25:35;;;;;;;5.28;2.60;;;17.70;68.00;;;;;;4990802;28;20050;-66
2023/06/07 03:28:02;;;;;;;5.45;2.83;;;17.70;68.00;;;;;;4983545;28;20069;-65
2023/06/07 03:30:37;;;;;;;5.25;3.28;;;17.70;68.00;;;;;;4993801;28;20129;-70
2023/06/07 03:33:04;;;;;;;4.63;3.03;;;17.70;68.10;;;;;;4996636;28;20509;-69
2023/06/07 03:35:34;;;;;;;4.97;2.90;;;17.70;68.30;;;;;;4981163;28;20489;-67
2023/06/07 03:38:04;;;;;;;4.68;2.97;;;17.70;68.30;;;;;;4989601;28;20406;-67
2023/06/07 03:40:31;;;;;;;5.55;2.97;;;17.70;68.20;;;;;;4994174;28;20069;-77
2023/06/07 03:43:01;;;;;;;4.78;3.00;;;17.70;68.10;;;;;;4994754;28;20050;-77
2023/06/07 03:45:28;;;;;;;5.32;2.88;;;17.70;68.30;;;;;;4994789;28;20054;-68
2023/06/07 03:48:02;;;;;;;4.95;2.72;;;17.70;68.20;;;;;;4979428;28;20046;-67
2023/06/07 03:50:30;;;;;;;5.50;3.15;;;17.70;68.10;;;;;;4993063;28;20057;-61
2023/06/07 03:52:58;;;;;;;5.32;3.03;;;17.70;68.00;;;;;;4979939;28;20421;-61
2023/06/07 03:55:26;;;;;;;6.47;3.10;;;17.70;68.00;;;;;;4974935;28;20046;-62
2023/06/07 03:57:53;;;;;;;4.97;3.03;;;17.70;68.10;;;;;;4994093;28;20075;-62
2023/06/07 04:00:20;;;;;;;5.57;3.25;;;17.70;68.10;;;;;;4976615;28;20559;-63
2023/06/07 04:02:53;;;;;;;4.85;2.78;;;17.70;68.40;;;;;;4978949;28;20134;-62
2023/06/07 04:05:20;;;;;;;5.18;3.28;;;17.70;68.30;;;;;;4978772;28;20148;-62
2023/06/07 04:07:47;;;;;;;4.53;2.80;;;17.70;68.30;;;;;;4978164;28;20053;-62
2023/06/07 04:10:15;;;;;;;5.57;2.80;;;17.70;68.30;;;;;;4970850;28;20054;-62
2023/06/07 04:12:44;;;;;;;6.43;3.35;;;17.70;68.50;;;;;;4974547;28;20066;-62
2023/06/07 04:15:13;;;;;;;5.15;2.83;;;17.70;68.40;;;;;;4970487;28;20057;-62
2023/06/07 04:17:40;;;;;;;5.85;3.15;;;17.70;68.30;;;;;;4977487;28;20065;-62
2023/06/07 04:20:09;;;;;;;4.97;3.17;;;17.70;68.40;;;;;;4977789;28;20054;-62
2023/06/07 04:22:37;;;;;;;4.93;3.40;;;17.70;68.40;;;;;;4977085;28;20550;-69
2023/06/07 04:25:07;;;;;;;4.88;3.17;;;17.70;68.60;;;;;;4977676;28;20053;-70
2023/06/07 04:27:48;;;;;;;5.13;3.10;;;17.70;68.60;;;;;;4995553;28;20204;-67
2023/06/07 04:30:18;;;;;;;4.78;3.10;;;17.70;68.60;;;;;;4975359;28;20058;-68
2023/06/07 04:32:45;;;;;;;5.35;3.13;;;17.70;68.60;;;;;;4978944;28;20096;-68
2023/06/07 04:35:14;;;;;;;4.82;3.17;;;17.70;68.60;;;;;;4995449;28;20046;-68
2023/06/07 04:37:45;;;;;;;4.07;2.60;;;17.70;68.80;;;;;;4976166;28;20049;-68
2023/06/07 04:40:13;;;;;;;;;;;17.70;69.00;;;;;;4991160;28;20053;-68
2023/06/07 04:42:46;;;;;;;5.28;3.33;;;17.70;68.90;;;;;;4976752;28;19965;-68
2023/06/07 04:45:16;;;;;;;4.95;2.95;;;17.70;68.80;;;;;;4974849;28;20057;-68
2023/06/07 04:47:45;;;;;;;7.03;3.55;;;17.70;68.90;;;;;;4989182;28;20056;-68
2023/06/07 04:50:16;;;;;;;5.78;3.85;;;17.80;69.00;;;;;;4977338;28;20141;-68
2023/06/07 04:52:43;;;;;;;6.43;3.20;;;17.70;69.00;;;;;;4969907;28;20048;-68
2023/06/07 04:55:10;;;;;;;5.75;3.50;;;17.80;68.70;;;;;;4977850;28;20490;-68
2023/06/07 04:57:38;;;;;;;5.78;3.17;;;17.90;68.70;;;;;;4975630;28;20165;-77
2023/06/07 05:00:07;;;;;;;5.28;3.13;;;17.90;68.70;;;;;;4978108;28;20042;-77
2023/06/07 05:02:44;;;;;;;5.63;3.60;;;17.90;68.70;;;;;;4993645;28;20073;-77
2023/06/07 05:05:13;;;;;;;7.55;3.55;;;17.90;68.60;;;;;;4978152;28;20085;-76
2023/06/07 05:07:42;;;;;;;5.25;3.53;;;18.00;68.30;;;;;;4968932;28;20081;-77
2023/06/07 05:10:10;;;;;;;4.50;3.23;;;18.00;68.00;;;;;;4990252;28;20131;-76
2023/06/07 05:12:37;;;;;;;5.22;3.25;;;18.10;67.70;;;;;;4992128;28;20196;-77
2023/06/07 05:15:06;;;;;;;5.25;3.13;;;18.10;67.70;;;;;;4977281;28;20081;-77
2023/06/07 05:17:36;;;;;;;5.68;3.42;;;18.10;67.50;;;;;;4979783;28;20103;-77
2023/06/07 05:20:10;;;;;;;6.47;3.63;;;18.20;67.30;;;;;;4995341;28;20129;-77
2023/06/07 05:22:39;;;;;;;5.95;3.33;;;18.20;67.20;;;;;;4977328;28;20139;-77
2023/06/07 05:25:08;;;;;;;5.97;3.33;;;18.30;66.80;;;;;;4995964;28;20170;-77
2023/06/07 05:27:37;;;;;;;6.80;4.15;;;18.30;66.90;;;;;;4980445;28;20137;-71
2023/06/07 05:30:06;;;;;;;6.22;3.50;;;18.40;67.00;;;;;;4979337;28;20050;-71
2023/06/07 05:32:34;;;;;;;5.32;3.50;;;18.40;66.50;;;;;;4981982;28;20049;-85
2023/06/07 05:35:02;;;;;;;5.22;3.53;;;18.50;66.50;;;;;;5000430;28;20070;-85
2023/06/07 05:37:31;;;;;;;5.68;3.38;;;18.50;66.10;;;;;;4995577;28;20642;-67
2023/06/07 05:39:59;;;;;;;5.25;3.40;;;18.60;66.00;;;;;;4993141;28;20049;-67
2023/06/07 05:42:26;;;;;;;5.70;3.58;;;18.50;66.50;;;;;;4994087;28;20088;-62
2023/06/07 05:44:55;;;;;;;6.22;3.47;;;18.60;66.50;;;;;;4979028;28;20053;-61
2023/06/07 05:47:25;;;;;;;5.47;3.42;;;18.70;66.40;;;;;;4970262;28;20092;-67
2023/06/07 05:49:54;;;;;;;6.55;3.72;;;18.70;66.00;;;;;;4976252;28;20045;-67
2023/06/07 05:52:21;;;;;;;6.07;3.73;;;18.70;65.90;;;;;;4985680;28;20132;-69
2023/06/07 05:54:53;;;;;;;7.30;4.03;;;18.80;66.20;;;;;;4994498;28;20046;-70
2023/06/07 05:57:20;;;;;;;8.52;3.83;;;18.70;65.80;;;;;;4993106;28;20060;-76
2023/06/07 05:59:47;;;;;;;5.68;4.05;;;18.70;65.30;;;;;;4995940;28;20073;-77
2023/06/07 06:02:15;;;;;;;6.57;3.83;;;18.70;65.40;;;;;;4987332;28;20098;-69
2023/06/07 06:04:42;;;;;;;6.72;3.97;;;18.70;65.70;;;;;;4988682;28;20061;-69
2023/06/07 06:07:10;;;;;;;5.30;3.25;;;18.70;65.90;;;;;;4990268;28;20077;-66
2023/06/07 06:09:36;;;;;;;5.38;3.58;;;18.80;66.00;;;;;;4992498;28;20092;-61
2023/06/07 06:12:06;;;;;;;6.00;3.80;;;18.80;65.80;;;;;;4994451;28;20387;-67
2023/06/07 06:14:33;;;;;;;7.15;3.80;;;18.80;65.60;;;;;;4992308;28;20042;-67
2023/06/07 06:17:00;;;;;;;5.30;3.58;;;18.80;66.00;;;;;;4994835;28;20046;-84
2023/06/07 06:19:27;;;;;;;5.97;3.80;;;18.80;66.10;;;;;;4994268;28;20057;-84
2023/06/07 06:21:54;;;;;;;5.50;3.30;;;18.80;66.00;;;;;;4994653;28;20049;-85
2023/06/07 06:24:21;;;;;;;5.97;3.70;;;18.90;65.90;;;;;;4994582;28;20449;-85
2023/06/07 06:26:48;;;;;;;5.68;3.80;;;19.00;65.80;;;;;;4993184;28;20417;-85
2023/06/07 06:29:16;;;;;;;5.30;3.55;;;19.00;65.70;;;;;;4995544;28;20046;-84
2023/06/07 06:31:43;;;;;;;5.70;3.40;;;19.20;65.40;;;;;;4989708;28;20109;-71
2023/06/07 06:34:12;;;;;;;7.30;3.97;;;19.20;65.40;;;;;;4991296;28;20133;-71
2023/06/07 06:36:39;;;;;;;6.57;3.83;;;19.30;64.80;;;;;;4995247;28;20050;-61
2023/06/07 06:39:08;;;;;;;5.63;3.42;;;19.50;64.80;;;;;;4997289;28;20046;-61
2023/06/07 06:41:35;;;;;;;6.65;3.58;;;19.60;64.20;;;;;;4995859;28;20050;-67
2023/06/07 06:44:04;;;;;;;6.53;3.95;;;19.80;63.90;;;;;;4990377;28;20054;-67
2023/06/07 06:46:32;;;;;;;6.38;3.95;;;20.00;63.20;;;;;;4978379;28;20066;-69
2023/06/07 06:48:59;;;;;;;6.15;4.15;;;20.10;62.70;;;;;;4996268;28;20085;-69
2023/06/07 06:51:26;;;;;;;7.10;4.32;;;20.20;62.50;;;;;;4997144;28;20050;-68
2023/06/07 06:53:53;;;;;;;6.22;3.78;;;20.30;62.20;;;;;;4992904;28;20081;-68
2023/06/07 06:56:21;;;;;;;8.52;4.30;;;20.50;61.50;;;;;;4995435;28;20054;-65
2023/06/07 06:58:48;;;;;;;5.93;3.80;;;20.70;61.40;;;;;;4992150;28;20050;-65
2023/06/07 07:01:15;;;;;;;6.72;4.10;;;20.80;61.20;;;;;;4996910;28;20093;-70
2023/06/07 07:03:44;;;;;;;6.63;4.18;;;20.90;61.20;;;;;;4997743;28;20065;-70
2023/06/07 07:06:11;;;;;;;6.50;3.78;;;21.10;61.00;;;;;;4997002;28;20042;-70
2023/06/07 07:08:39;;;;;;;6.43;4.32;;;21.20;60.50;;;;;;4993235;28;20133;-70
2023/06/07 07:11:06;;;;;;;5.85;4.38;;;21.30;60.20;;;;;;4998128;28;20061;-77
2023/06/07 07:13:33;;;;;;;6.55;4.15;;;21.30;60.00;;;;;;4994485;28;20717;-77
2023/06/07 07:16:00;;;;;;;8.27;4.30;;;21.40;59.80;;;;;;4996642;28;20115;-77
2023/06/07 07:18:27;;;;;;;7.38;4.53;;;21.60;59.70;;;;;;4997488;28;20058;-77
2023/06/07 07:20:55;;;;;;;5.43;3.92;;;21.70;59.30;;;;;;4999054;28;20049;-71
2023/06/07 07:23:22;;;;;;;6.15;4.53;;;21.90;58.70;;;;;;4995153;28;20470;-71
2023/06/07 07:25:49;;;;;;;6.13;4.40;;;21.80;58.90;;;;;;4997152;28;20030;-72
2023/06/07 07:28:17;;;;;;;8.38;4.60;;;22.00;58.40;;;;;;4997815;28;20042;-72
2023/06/07 07:30:44;;;;;;;7.55;4.50;;;22.10;58.50;;;;;;4988634;28;20062;-85
2023/06/07 07:33:11;;;;;;;6.97;4.45;;;22.10;58.80;;;;;;5000396;28;20050;-85
2023/06/07 07:35:37;;;;;;;8.10;4.90;;;22.10;59.30;;;;;;4996971;28;20045;-86
2023/06/07 07:38:07;;;;;;;7.05;4.50;;;22.10;59.30;;;;;;4984352;28;20053;-85
2023/06/07 07:40:34;;;;;;;6.55;4.20;;;22.10;59.50;;;;;;4998094;28;20656;-70
2023/06/07 07:43:02;;;;;;;7.00;4.63;;;22.00;59.40;;;;;;4995300;28;20116;-70
2023/06/07 07:45:29;;;;;;;6.60;4.53;;;22.00;59.40;;;;;;4994872;28;20232;-69
2023/06/07 07:47:56;;;;;;;8.30;5.07;;;22.10;59.40;;;;;;4995037;28;20050;-70
2023/06/07 07:50:23;;;;;;;9.05;5.55;;;22.10;59.30;;;;;;4993148;28;20054;-70
2023/06/07 07:52:53;;;;;;;7.07;4.93;;;22.00;59.40;;;;;;4996265;28;20076;-70
2023/06/07 07:55:23;;;;;;;8.48;5.22;;;21.90;59.50;;;;;;4992706;28;20556;-70
2023/06/07 07:57:49;;;;;;;;;;;21.90;59.60;;;;;;4997491;28;20061;-70
2023/06/07 08:00:17;;;;;;;8.80;4.97;;;21.70;60.00;;;;;;4994777;28;19925;-70
2023/06/07 08:02:46;;;;;;;;;;;21.70;59.90;;;;;;4992318;28;20054;-70
2023/06/07 08:05:12;;;;;;;5.97;4.40;;;21.60;59.90;;;;;;4995991;28;20288;-70
2023/06/07 08:07:40;;;;;;;6.93;4.85;;;21.60;60.10;;;;;;4998548;28;20054;-84
2023/06/07 08:10:09;;;;;;;7.40;4.85;;;21.70;60.30;;;;;;4995398;28;20069;-83
2023/06/07 08:12:37;;;;;;;8.32;4.72;;;21.70;60.30;;;;;;4996760;28;20514;-72
2023/06/07 08:15:05;;;;;;;6.50;4.75;;;21.80;60.20;;;;;;4993690;28;20054;-72
2023/06/07 08:17:32;;;;;;;7.93;5.28;;;21.80;60.60;;;;;;4995129;28;20057;-70
2023/06/07 08:19:58;;;;;;;9.35;6.55;;;21.80;60.60;;;;;;4994050;28;20053;-70
2023/06/07 08:22:25;;;;;;;10.98;7.93;;;21.90;60.60;;;;;;4993827;28;20050;-70
2023/06/07 08:24:52;;;;;;;8.45;6.60;;;21.90;60.80;;;;;;4994293;28;20100;-69
2023/06/07 08:27:19;;;;;;;9.25;6.45;;;22.00;61.30;;;;;;4993483;28;20767;-70
2023/06/07 08:29:48;;;;;;;8.90;6.00;;;22.10;60.80;;;;;;4993433;28;20057;-71
2023/06/07 08:32:15;;;;;;;8.50;6.30;;;22.10;60.80;;;;;;4995419;28;20092;-71
2023/06/07 08:34:42;;;;;;;7.55;5.70;;;22.20;60.40;;;;;;4995377;28;20453;-71
2023/06/07 08:37:09;;;;;;;6.93;5.53;;;22.20;60.30;;;;;;4993946;28;20097;-73
2023/06/07 08:39:36;;;;;;;8.27;5.68;;;22.20;60.50;;;;;;4993621;28;20536;-77
2023/06/07 08:42:03;;;;;;;8.15;6.13;;;22.20;60.40;;;;;;4995593;28;20035;-71
2023/06/07 08:44:30;;;;;;;7.25;5.43;;;22.40;60.20;;;;;;4985178;28;20137;-71
2023/06/07 08:47:01;;;;;;;7.03;5.38;;;22.60;60.00;;;;;;4976116;28;20069;-67
2023/06/07 08:49:33;;;;;;;8.77;5.57;;;22.60;59.80;;;;;;4991717;28;20520;-66
2023/06/07 08:52:03;;;;;;;7.65;5.35;;;22.60;59.80;;;;;;5000121;28;20058;-89
2023/06/07 08:54:31;;;;;;;9.60;5.90;;;22.60;59.50;;;;;;4999074;28;20055;-89
2023/06/07 08:56:59;;;;;;;6.95;5.40;;;22.60;59.50;;;;;;4990668;28;20049;-62
2023/06/07 08:59:27;;;;;;;10.38;6.18;;;22.60;59.80;;;;;;4991785;28;20410;-62
2023/06/07 09:01:54;;;;;;;7.82;5.60;;;22.50;59.90;;;;;;4995974;28;20510;-71
2023/06/07 09:04:23;;;;;;;7.57;6.10;;;22.50;60.00;;;;;;4995301;28;20046;-71
2023/06/07 09:06:51;;;;;;;8.02;6.28;;;22.40;60.20;;;;;;4995241;28;20065;-71
2023/06/07 09:09:18;;;;;;;9.57;6.45;;;22.40;60.30;;;;;;4985861;28;20474;-69
2023/06/07 09:11:49;;;;;;;8.20;6.35;;;22.40;60.50;;;;;;4987980;28;20558;-71
2023/06/07 09:14:16;;;;;;;7.00;6.05;;;22.40;60.90;;;;;;4991766;28;20572;-72
2023/06/07 09:16:54;;;;;;;8.50;6.35;;;22.40;60.60;;;;;;4992388;28;20442;-71
2023/06/07 09:19:33;;;;;;;8.07;6.18;;;22.40;60.60;;;;;;4988035;28;20050;-73
2023/06/07 09:22:00;;;;;;;;;;;22.40;60.60;;;;;;4991124;28;20062;-71
2023/06/07 09:24:28;;;;;;;7.90;5.45;;;22.40;61.00;;;;;;4989693;28;19932;-71
2023/06/07 09:26:55;;;;;;;7.15;5.65;;;22.30;61.30;;;;;;4996970;28;20055;-69
2023/06/07 09:29:23;;;;;;;6.75;5.93;;;22.30;61.50;;;;;;4989174;28;20081;-68
2023/06/07 09:31:49;;;;;;;8.05;5.93;;;22.20;61.50;;;;;;4993341;28;20056;-88
2023/06/07 09:34:21;;;;;;;8.18;5.97;;;22.20;61.80;;;;;;4995404;28;20057;-88
2023/06/07 09:36:54;;;;;;;7.72;6.10;;;22.20;62.00;;;;;;4994214;28;20058;-88
2023/06/07 09:39:22;;;;;;;8.77;6.53;;;22.20;62.10;;;;;;4995400;28;20089;-88
2023/06/07 09:41:50;;;;;;;7.40;5.72;;;22.30;62.10;;;;;;4994125;28;20124;-71
2023/06/07 09:44:25;;;;;;;7.30;5.80;;;22.40;62.20;;;;;;4995258;28;20065;-71
2023/06/07 09:46:52;;;;;;;6.88;5.78;;;22.60;61.60;;;;;;4990321;28;20065;-77
2023/06/07 09:49:31;;;;;;;7.80;5.80;;;22.80;61.10;;;;;;4986939;28;20072;-77
2023/06/07 09:51:59;;;;;;;8.47;6.27;;;23.20;60.40;;;;;;4991993;28;20138;-69
2023/06/07 09:54:37;;;;;;;7.07;5.70;;;23.50;59.80;;;;;;4992790;28;22784;-69
2023/06/07 09:57:08;;;;;;;7.88;6.28;;;23.50;59.90;;;;;;4991040;28;20061;-62
2023/06/07 09:59:37;;;;;;;7.28;5.65;;;23.60;59.80;;;;;;4992808;28;20116;-62
2023/06/07 10:02:23;;;;;;;8.03;6.17;;;23.60;59.30;;;;;;4990057;28;20054;-77
2023/06/07 10:04:50;;;;;;;8.32;6.20;;;23.60;59.50;;;;;;4988659;28;20563;-77
2023/06/07 10:07:21;;;;;;;7.70;5.95;;;23.70;58.70;;;;;;4986667;28;20054;-71
2023/06/07 10:09:52;;;;;;;7.55;6.20;;;23.90;58.90;;;;;;4991094;28;20585;-71
2023/06/07 10:12:21;;;;;;;8.55;6.53;;;24.00;58.20;;;;;;4993488;28;20379;-69
2023/06/07 10:14:49;;;;;;;8.93;6.22;;;24.10;57.90;;;;;;4989928;28;20047;-68
2023/06/07 10:17:20;;;;;;;6.78;5.40;;;24.20;58.20;;;;;;4990892;28;20065;-71
2023/06/07 10:19:52;;;;;;;7.68;5.60;;;24.10;58.00;;;;;;4988662;28;20563;-70
2023/06/07 10:22:25;;;;;;;7.55;5.90;;;24.00;58.00;;;;;;4992263;28;20485;-86
2023/06/07 10:25:02;;;;;;;7.32;6.25;;;24.20;58.40;;;;;;4996216;28;20061;-86
2023/06/07 10:27:35;;;;;;;8.75;6.25;;;24.50;57.90;;;;;;4992521;28;20057;-70
2023/06/07 10:30:10;;;;;;;8.70;6.75;;;24.70;57.30;;;;;;4992723;28;20093;-70
2023/06/07 10:32:38;;;;;;;7.32;6.10;;;25.00;56.80;;;;;;4985060;28;20054;-69
2023/06/07 10:35:09;;;;;;;6.90;5.85;;;25.20;56.00;;;;;;4995136;28;20120;-69
2023/06/07 10:37:37;;;;;;;6.78;5.78;;;25.40;55.60;;;;;;4992157;28;20137;-61
2023/06/07 10:40:10;;;;;;;7.15;5.70;;;25.50;55.50;;;;;;4994801;28;20521;-61
2023/06/07 10:42:38;;;;;;;7.53;5.47;;;25.60;55.10;;;;;;4993947;28;20559;-61
2023/06/07 10:45:11;;;;;;;8.05;5.68;;;25.70;54.90;;;;;;4975902;28;20061;-61
2023/06/07 10:47:39;;;;;;;7.70;6.50;;;25.80;54.40;;;;;;4990135;28;20094;-68
2023/06/07 10:50:07;;;;;;;8.90;6.72;;;25.90;54.20;;;;;;4984787;28;20046;-67
2023/06/07 10:52:34;;;;;;;12.27;10.10;;;26.00;54.10;;;;;;4990424;28;20089;-69
2023/06/07 10:55:31;;;;;;;14.40;12.77;;;26.10;53.70;;;;;;4991257;28;20045;-68
2023/06/07 10:58:01;;;;;;;12.38;11.07;;;26.30;52.40;;;;;;4994222;28;20121;-68
2023/06/07 11:00:33;;;;;;;9.32;8.35;;;26.60;51.80;;;;;;4979047;28;20050;-69
2023/06/07 11:03:37;;;;;;;9.13;7.55;;;26.70;51.40;;;;;;4978721;28;20089;-69
2023/06/07 11:06:09;;;;;;;8.18;7.32;;;26.90;51.10;;;;;;4987554;28;20073;-68
2023/06/07 11:08:41;;;;;;;9.63;8.55;;;27.00;50.50;;;;;;4992296;28;20209;-68
2023/06/07 11:11:47;;;;;;;8.90;7.53;;;26.90;50.40;;;;;;4990846;28;20070;-68
2023/06/07 11:14:16;;;;;;;8.68;7.43;;;27.00;50.10;;;;;;4961906;28;20050;-69
2023/06/07 11:16:43;;;;;;;7.95;6.40;;;26.90;50.00;;;;;;4975050;28;20050;-68
2023/06/07 11:19:16;;;;;;;7.10;5.68;;;27.00;49.60;;;;;;4976324;28;20137;-69
2023/06/07 11:22:05;;;;;;;6.38;5.68;;;27.20;49.60;;;;;;4995019;28;20116;-69
2023/06/07 11:24:41;;;;;;;7.35;6.47;;;27.40;49.10;;;;;;4995012;28;20108;-69
2023/06/07 11:27:13;;;;;;;6.82;5.88;;;27.30;48.30;;;;;;4986999;28;20169;-68
2023/06/07 11:29:48;;;;;;;6.95;5.47;;;27.60;47.40;;;;;;4994049;28;20057;-68
2023/06/07 11:32:15;;;;;;;6.63;5.13;;;27.50;47.30;;;;;;4982880;28;20068;-81
2023/06/07 11:34:42;;;;;;;5.05;4.35;;;27.50;46.90;;;;;;4986222;28;20050;-83
2023/06/07 11:37:16;;;;;;;5.45;4.32;;;27.60;46.30;;;;;;4995097;28;20057;-68
2023/06/07 11:39:47;;;;;;;4.53;3.58;;;27.60;46.10;;;;;;4993351;28;20050;-69
2023/06/07 11:42:14;;;;;;;5.57;3.65;;;27.40;46.30;;;;;;4995591;28;20046;-62
2023/06/07 11:44:42;;;;;;;4.63;4.00;;;27.10;46.90;;;;;;4978631;28;20541;-62
2023/06/07 11:47:12;;;;;;;5.63;4.00;;;26.90;47.50;;;;;;4996347;28;20065;-61
2023/06/07 11:49:40;;;;;;;5.60;3.83;;;26.50;48.60;;;;;;4991215;28;20065;-61
2023/06/07 11:52:08;;;;;;;5.25;4.28;;;26.20;49.60;;;;;;4989263;28;22775;-68
2023/06/07 11:54:36;;;;;;;6.75;4.53;;;26.00;50.60;;;;;;4994310;28;20050;-68
2023/06/07 11:57:03;;;;;;;6.75;4.47;;;25.80;51.40;;;;;;4993548;28;20050;-77
2023/06/07 11:59:31;;;;;;;6.75;4.55;;;25.70;51.60;;;;;;4995137;28;20701;-77
2023/06/07 12:01:58;;;;;;;6.05;4.55;;;25.70;52.10;;;;;;4995980;28;20089;-65
2023/06/07 12:04:27;;;;;;;5.25;4.55;;;25.70;52.40;;;;;;4994793;28;20046;-65
2023/06/07 12:06:55;;;;;;;5.43;4.40;;;25.70;52.30;;;;;;5001393;28;20070;-79
2023/06/07 12:09:22;;;;;;;5.38;4.47;;;26.00;52.10;;;;;;4998645;28;20062;-80
2023/06/07 12:11:49;;;;;;;6.57;4.63;;;26.30;51.80;;;;;;4994475;28;20567;-81
2023/06/07 12:14:32;;;;;;;5.78;4.78;;;26.50;51.20;;;;;;4998102;28;20050;-80
2023/06/07 12:17:00;;;;;;;6.47;4.82;;;26.60;50.70;;;;;;4997564;28;20050;-66
2023/06/07 12:19:29;;;;;;;5.07;4.33;;;26.60;50.80;;;;;;4989899;28;20458;-65
2023/06/07 12:22:04;;;;;;;6.03;4.95;;;26.60;50.80;;;;;;4990773;28;20469;-70
2023/06/07 12:24:31;;;;;;;5.38;4.50;;;26.70;50.80;;;;;;4989560;28;20144;-71
2023/06/07 12:26:58;;;;;;;6.28;4.40;;;26.90;51.00;;;;;;4995619;28;20054;-81
2023/06/07 12:29:29;;;;;;;6.82;4.93;;;26.90;51.00;;;;;;4994198;28;20428;-81
2023/06/07 12:31:57;;;;;;;4.90;4.05;;;26.90;50.90;;;;;;4979219;28;20413;-70
2023/06/07 12:34:30;;;;;;;6.72;4.80;;;27.00;50.50;;;;;;4989015;28;20054;-70
2023/06/07 12:36:57;;;;;;;6.13;4.78;;;27.10;50.40;;;;;;4996098;28;20058;-62
2023/06/07 12:39:29;;;;;;;5.70;4.75;;;27.30;49.80;;;;;;4994828;28;20053;-62
2023/06/07 12:41:56;;;;;;;6.07;4.93;;;27.40;49.70;;;;;;4995032;28;20104;-66
2023/06/07 12:44:24;;;;;;;6.95;5.28;;;27.20;49.80;;;;;;4994268;28;20054;-67
2023/06/07 12:46:51;;;;;;;6.57;5.35;;;27.10;49.80;;;;;;4988107;28;20057;-71
2023/06/07 12:49:18;;;;;;;6.82;5.05;;;27.10;50.40;;;;;;4988383;28;20519;-71
2023/06/07 12:51:46;;;;;;;6.68;5.28;;;27.00;50.90;;;;;;4994729;28;20065;-79
2023/06/07 12:54:13;;;;;;;7.50;5.70;;;26.70;51.40;;;;;;4992898;28;20049;-79
2023/06/07 12:56:41;;;;;;;8.10;5.75;;;26.50;51.70;;;;;;4995247;28;20046;-80
2023/06/07 12:59:08;;;;;;;6.85;5.75;;;26.40;52.40;;;;;;4996484;28;20054;-79